sensor_id;sensor_type;location;lat;lon;timestamp;P1;durP1;ratioP1;P2;durP2;ratioP2
28822;SDS011;15961;54.678;9.110;2022-10-16T00:00:35;31.65;;;10.52;;
28822;SDS011;15961;54.678;9.110;2022-10-16T00:03:01;32.40;;;9.25;;
28822;SDS011;15961;54.678;9.110;2022-10-16T00:05:28;24.70;;;10.27;;
28822;SDS011;15961;54.678;9.110;2022-10-16T00:07:53;27.88;;;8.95;;
28822;SDS011;15961;54.678;9.110;2022-10-16T00:10:19;29.77;;;8.05;;
28822;SDS011;15961;54.678;9.110;2022-10-16T00:12:45;31.52;;;8.15;;
28822;SDS011;15961;54.678;9.110;2022-10-16T00:15:11;29.42;;;8.15;;
28822;SDS011;15961;54.678;9.110;2022-10-16T00:17:36;26.13;;;8.77;;
28822;SDS011;15961;54.678;9.110;2022-10-16T00:20:02;29.85;;;8.27;;
28822;SDS011;15961;54.678;9.110;2022-10-16T00:22:28;22.75;;;6.18;;
28822;SDS011;15961;54.678;9.110;2022-10-16T00:24:53;28.45;;;6.75;;
28822;SDS011;15961;54.678;9.110;2022-10-16T00:27:19;30.80;;;6.85;;
28822;SDS011;15961;54.678;9.110;2022-10-16T00:29:45;31.42;;;6.22;;
28822;SDS011;15961;54.678;9.110;2022-10-16T00:32:14;26.98;;;5.35;;
28822;SDS011;15961;54.678;9.110;2022-10-16T00:34:39;23.63;;;6.40;;
28822;SDS011;15961;54.678;9.110;2022-10-16T00:37:05;28.35;;;5.72;;
28822;SDS011;15961;54.678;9.110;2022-10-16T00:39:30;19.15;;;4.90;;
28822;SDS011;15961;54.678;9.110;2022-10-16T00:41:56;33.20;;;5.57;;
28822;SDS011;15961;54.678;9.110;2022-10-16T00:47:07;20.48;;;4.20;;
28822;SDS011;15961;54.678;9.110;2022-10-16T00:49:44;25.23;;;4.30;;
28822;SDS011;15961;54.678;9.110;2022-10-16T00:52:11;24.65;;;4.43;;
28822;SDS011;15961;54.678;9.110;2022-10-16T00:54:39;30.45;;;4.30;;
28822;SDS011;15961;54.678;9.110;2022-10-16T00:57:05;18.73;;;4.55;;
28822;SDS011;15961;54.678;9.110;2022-10-16T00:59:33;20.77;;;4.20;;
28822;SDS011;15961;54.678;9.110;2022-10-16T01:02:01;23.02;;;5.55;;
28822;SDS011;15961;54.678;9.110;2022-10-16T01:04:30;23.75;;;4.60;;
28822;SDS011;15961;54.678;9.110;2022-10-16T01:12:45;28.17;;;4.55;;
28822;SDS011;15961;54.678;9.110;2022-10-16T01:15:33;17.00;;;3.53;;
28822;SDS011;15961;54.678;9.110;2022-10-16T01:18:00;25.52;;;5.35;;
28822;SDS011;15961;54.678;9.110;2022-10-16T01:20:37;15.63;;;3.28;;
28822;SDS011;15961;54.678;9.110;2022-10-16T01:23:18;29.52;;;4.50;;
28822;SDS011;15961;54.678;9.110;2022-10-16T01:25:59;25.77;;;4.60;;
28822;SDS011;15961;54.678;9.110;2022-10-16T01:28:34;20.58;;;3.97;;
28822;SDS011;15961;54.678;9.110;2022-10-16T01:31:10;26.67;;;4.85;;
28822;SDS011;15961;54.678;9.110;2022-10-16T01:33:43;30.67;;;4.63;;
28822;SDS011;15961;54.678;9.110;2022-10-16T01:36:16;19.73;;;4.28;;
28822;SDS011;15961;54.678;9.110;2022-10-16T01:38:49;25.67;;;4.55;;
28822;SDS011;15961;54.678;9.110;2022-10-16T01:41:23;32.38;;;4.82;;
28822;SDS011;15961;54.678;9.110;2022-10-16T01:44:04;23.27;;;4.40;;
28822;SDS011;15961;54.678;9.110;2022-10-16T01:46:37;22.70;;;3.90;;
28822;SDS011;15961;54.678;9.110;2022-10-16T01:49:04;21.38;;;4.25;;
28822;SDS011;15961;54.678;9.110;2022-10-16T01:51:33;18.58;;;4.85;;
28822;SDS011;15961;54.678;9.110;2022-10-16T01:54:01;20.23;;;5.28;;
28822;SDS011;15961;54.678;9.110;2022-10-16T01:56:27;23.33;;;4.20;;
28822;SDS011;15961;54.678;9.110;2022-10-16T01:58:58;26.23;;;4.93;;
28822;SDS011;15961;54.678;9.110;2022-10-16T02:01:29;22.70;;;5.13;;
28822;SDS011;15961;54.678;9.110;2022-10-16T02:03:58;15.63;;;4.43;;
28822;SDS011;15961;54.678;9.110;2022-10-16T02:06:33;29.05;;;4.78;;
28822;SDS011;15961;54.678;9.110;2022-10-16T02:08:59;29.48;;;4.65;;
28822;SDS011;15961;54.678;9.110;2022-10-16T02:11:25;24.80;;;4.15;;
28822;SDS011;15961;54.678;9.110;2022-10-16T02:13:52;30.67;;;4.93;;
28822;SDS011;15961;54.678;9.110;2022-10-16T02:16:23;23.20;;;4.13;;
28822;SDS011;15961;54.678;9.110;2022-10-16T02:19:03;25.58;;;4.95;;
28822;SDS011;15961;54.678;9.110;2022-10-16T02:21:30;24.40;;;5.15;;
28822;SDS011;15961;54.678;9.110;2022-10-16T02:27:05;42.92;;;4.80;;
28822;SDS011;15961;54.678;9.110;2022-10-16T02:29:36;35.13;;;6.18;;
28822;SDS011;15961;54.678;9.110;2022-10-16T02:32:09;23.23;;;6.72;;
28822;SDS011;15961;54.678;9.110;2022-10-16T02:34:37;19.80;;;4.85;;
28822;SDS011;15961;54.678;9.110;2022-10-16T02:37:04;28.05;;;5.60;;
28822;SDS011;15961;54.678;9.110;2022-10-16T02:39:31;33.80;;;5.10;;
28822;SDS011;15961;54.678;9.110;2022-10-16T02:41:58;30.48;;;4.55;;
28822;SDS011;15961;54.678;9.110;2022-10-16T02:44:23;21.80;;;5.38;;
28822;SDS011;15961;54.678;9.110;2022-10-16T02:46:49;31.88;;;4.15;;
28822;SDS011;15961;54.678;9.110;2022-10-16T02:49:14;12.98;;;3.53;;
28822;SDS011;15961;54.678;9.110;2022-10-16T02:51:40;35.38;;;6.03;;
28822;SDS011;15961;54.678;9.110;2022-10-16T02:54:05;17.67;;;3.60;;
28822;SDS011;15961;54.678;9.110;2022-10-16T02:56:31;33.55;;;4.40;;
28822;SDS011;15961;54.678;9.110;2022-10-16T02:58:56;25.77;;;4.75;;
28822;SDS011;15961;54.678;9.110;2022-10-16T03:01:23;23.92;;;3.80;;
28822;SDS011;15961;54.678;9.110;2022-10-16T03:03:48;31.08;;;5.30;;
28822;SDS011;15961;54.678;9.110;2022-10-16T03:06:14;20.30;;;4.20;;
28822;SDS011;15961;54.678;9.110;2022-10-16T03:08:40;36.30;;;5.07;;
28822;SDS011;15961;54.678;9.110;2022-10-16T03:11:05;30.08;;;5.15;;
28822;SDS011;15961;54.678;9.110;2022-10-16T03:13:31;22.85;;;4.00;;
28822;SDS011;15961;54.678;9.110;2022-10-16T03:15:56;30.77;;;5.13;;
28822;SDS011;15961;54.678;9.110;2022-10-16T03:18:22;21.58;;;3.60;;
28822;SDS011;15961;54.678;9.110;2022-10-16T03:20:47;27.13;;;4.35;;
28822;SDS011;15961;54.678;9.110;2022-10-16T03:23:13;27.20;;;4.43;;
28822;SDS011;15961;54.678;9.110;2022-10-16T03:25:38;27.33;;;4.47;;
28822;SDS011;15961;54.678;9.110;2022-10-16T03:28:04;22.77;;;4.35;;
28822;SDS011;15961;54.678;9.110;2022-10-16T03:30:30;22.52;;;5.55;;
28822;SDS011;15961;54.678;9.110;2022-10-16T03:32:55;51.05;;;4.40;;
28822;SDS011;15961;54.678;9.110;2022-10-16T03:35:21;19.45;;;3.75;;
28822;SDS011;15961;54.678;9.110;2022-10-16T03:37:48;25.30;;;3.83;;
28822;SDS011;15961;54.678;9.110;2022-10-16T03:40:13;25.00;;;4.57;;
28822;SDS011;15961;54.678;9.110;2022-10-16T03:42:40;30.55;;;5.78;;
28822;SDS011;15961;54.678;9.110;2022-10-16T03:45:07;27.05;;;3.85;;
28822;SDS011;15961;54.678;9.110;2022-10-16T03:47:32;15.13;;;3.78;;
28822;SDS011;15961;54.678;9.110;2022-10-16T03:49:58;25.45;;;5.60;;
28822;SDS011;15961;54.678;9.110;2022-10-16T03:52:24;33.65;;;4.60;;
28822;SDS011;15961;54.678;9.110;2022-10-16T03:54:50;31.25;;;5.18;;
28822;SDS011;15961;54.678;9.110;2022-10-16T03:57:16;22.23;;;4.45;;
28822;SDS011;15961;54.678;9.110;2022-10-16T03:59:42;26.10;;;4.28;;
28822;SDS011;15961;54.678;9.110;2022-10-16T04:02:07;19.05;;;5.38;;
28822;SDS011;15961;54.678;9.110;2022-10-16T04:04:33;19.15;;;4.28;;
28822;SDS011;15961;54.678;9.110;2022-10-16T04:06:58;21.98;;;4.60;;
28822;SDS011;15961;54.678;9.110;2022-10-16T04:09:24;19.33;;;4.30;;
28822;SDS011;15961;54.678;9.110;2022-10-16T04:11:49;36.55;;;4.47;;
28822;SDS011;15961;54.678;9.110;2022-10-16T04:14:15;27.20;;;5.00;;
28822;SDS011;15961;54.678;9.110;2022-10-16T04:16:41;21.98;;;3.97;;
28822;SDS011;15961;54.678;9.110;2022-10-16T04:19:06;40.17;;;4.85;;
28822;SDS011;15961;54.678;9.110;2022-10-16T04:21:32;32.97;;;5.90;;
28822;SDS011;15961;54.678;9.110;2022-10-16T04:23:57;34.63;;;4.07;;
28822;SDS011;15961;54.678;9.110;2022-10-16T04:26:23;19.13;;;4.32;;
28822;SDS011;15961;54.678;9.110;2022-10-16T04:28:48;42.25;;;6.18;;
28822;SDS011;15961;54.678;9.110;2022-10-16T04:31:14;14.38;;;4.05;;
28822;SDS011;15961;54.678;9.110;2022-10-16T04:33:41;29.35;;;4.68;;
28822;SDS011;15961;54.678;9.110;2022-10-16T04:36:08;37.97;;;6.22;;
28822;SDS011;15961;54.678;9.110;2022-10-16T04:38:33;23.92;;;4.13;;
28822;SDS011;15961;54.678;9.110;2022-10-16T04:40:59;23.60;;;4.00;;
28822;SDS011;15961;54.678;9.110;2022-10-16T04:43:25;27.15;;;4.13;;
28822;SDS011;15961;54.678;9.110;2022-10-16T04:45:51;15.88;;;4.07;;
28822;SDS011;15961;54.678;9.110;2022-10-16T04:48:17;10.18;;;2.72;;
28822;SDS011;15961;54.678;9.110;2022-10-16T04:50:43;21.95;;;4.28;;
28822;SDS011;15961;54.678;9.110;2022-10-16T04:53:08;28.10;;;3.78;;
28822;SDS011;15961;54.678;9.110;2022-10-16T04:55:34;25.10;;;3.78;;
28822;SDS011;15961;54.678;9.110;2022-10-16T04:57:59;22.23;;;5.78;;
28822;SDS011;15961;54.678;9.110;2022-10-16T05:00:25;21.25;;;3.80;;
28822;SDS011;15961;54.678;9.110;2022-10-16T05:02:51;17.75;;;4.03;;
28822;SDS011;15961;54.678;9.110;2022-10-16T05:05:16;25.75;;;4.25;;
28822;SDS011;15961;54.678;9.110;2022-10-16T05:07:44;18.05;;;3.75;;
28822;SDS011;15961;54.678;9.110;2022-10-16T05:10:10;33.80;;;5.88;;
28822;SDS011;15961;54.678;9.110;2022-10-16T05:12:35;27.02;;;3.90;;
28822;SDS011;15961;54.678;9.110;2022-10-16T05:15:01;24.45;;;4.63;;
28822;SDS011;15961;54.678;9.110;2022-10-16T05:17:27;24.67;;;4.40;;
28822;SDS011;15961;54.678;9.110;2022-10-16T05:19:52;32.10;;;5.05;;
28822;SDS011;15961;54.678;9.110;2022-10-16T05:22:18;28.30;;;4.03;;
28822;SDS011;15961;54.678;9.110;2022-10-16T05:24:43;13.00;;;3.58;;
28822;SDS011;15961;54.678;9.110;2022-10-16T05:27:09;22.05;;;3.70;;
28822;SDS011;15961;54.678;9.110;2022-10-16T05:29:35;19.58;;;4.20;;
28822;SDS011;15961;54.678;9.110;2022-10-16T05:32:01;45.05;;;4.47;;
28822;SDS011;15961;54.678;9.110;2022-10-16T05:34:27;21.83;;;5.03;;
28822;SDS011;15961;54.678;9.110;2022-10-16T05:36:52;12.70;;;3.53;;
28822;SDS011;15961;54.678;9.110;2022-10-16T05:39:18;17.33;;;4.00;;
28822;SDS011;15961;54.678;9.110;2022-10-16T05:41:43;24.48;;;3.75;;
28822;SDS011;15961;54.678;9.110;2022-10-16T05:44:09;27.33;;;4.90;;
28822;SDS011;15961;54.678;9.110;2022-10-16T05:46:35;16.40;;;2.72;;
28822;SDS011;15961;54.678;9.110;2022-10-16T05:49:01;18.33;;;3.30;;
28822;SDS011;15961;54.678;9.110;2022-10-16T05:51:26;19.02;;;3.83;;
28822;SDS011;15961;54.678;9.110;2022-10-16T05:53:52;38.17;;;4.32;;
28822;SDS011;15961;54.678;9.110;2022-10-16T05:56:17;18.77;;;3.95;;
28822;SDS011;15961;54.678;9.110;2022-10-16T05:58:43;19.35;;;3.15;;
28822;SDS011;15961;54.678;9.110;2022-10-16T06:01:13;14.90;;;3.42;;
28822;SDS011;15961;54.678;9.110;2022-10-16T06:03:43;38.58;;;4.38;;
28822;SDS011;15961;54.678;9.110;2022-10-16T06:08:35;15.70;;;3.15;;
28822;SDS011;15961;54.678;9.110;2022-10-16T06:11:02;20.05;;;3.25;;
28822;SDS011;15961;54.678;9.110;2022-10-16T06:13:29;24.20;;;3.97;;
28822;SDS011;15961;54.678;9.110;2022-10-16T06:15:56;16.92;;;4.00;;
28822;SDS011;15961;54.678;9.110;2022-10-16T06:18:23;26.20;;;3.80;;
28822;SDS011;15961;54.678;9.110;2022-10-16T06:20:49;23.45;;;3.40;;
28822;SDS011;15961;54.678;9.110;2022-10-16T06:23:14;18.80;;;3.17;;
28822;SDS011;15961;54.678;9.110;2022-10-16T06:25:40;13.30;;;3.05;;
28822;SDS011;15961;54.678;9.110;2022-10-16T06:28:05;21.95;;;3.33;;
28822;SDS011;15961;54.678;9.110;2022-10-16T06:30:31;18.88;;;3.92;;
28822;SDS011;15961;54.678;9.110;2022-10-16T06:32:56;18.02;;;4.15;;
28822;SDS011;15961;54.678;9.110;2022-10-16T06:35:22;15.45;;;2.58;;
28822;SDS011;15961;54.678;9.110;2022-10-16T06:37:48;10.10;;;3.28;;
28822;SDS011;15961;54.678;9.110;2022-10-16T06:40:13;12.75;;;2.95;;
28822;SDS011;15961;54.678;9.110;2022-10-16T06:42:39;15.68;;;3.50;;
28822;SDS011;15961;54.678;9.110;2022-10-16T06:45:05;18.10;;;3.35;;
28822;SDS011;15961;54.678;9.110;2022-10-16T06:47:31;13.60;;;3.80;;
28822;SDS011;15961;54.678;9.110;2022-10-16T06:49:57;21.65;;;3.60;;
28822;SDS011;15961;54.678;9.110;2022-10-16T06:52:22;33.38;;;4.13;;
28822;SDS011;15961;54.678;9.110;2022-10-16T06:54:49;8.38;;;2.63;;
28822;SDS011;15961;54.678;9.110;2022-10-16T06:57:14;32.58;;;4.35;;
28822;SDS011;15961;54.678;9.110;2022-10-16T06:59:40;31.85;;;4.00;;
28822;SDS011;15961;54.678;9.110;2022-10-16T07:02:06;12.32;;;2.60;;
28822;SDS011;15961;54.678;9.110;2022-10-16T07:04:33;16.15;;;2.85;;
28822;SDS011;15961;54.678;9.110;2022-10-16T07:07:00;18.02;;;4.28;;
28822;SDS011;15961;54.678;9.110;2022-10-16T07:09:25;17.40;;;3.40;;
28822;SDS011;15961;54.678;9.110;2022-10-16T07:11:51;13.52;;;2.85;;
28822;SDS011;15961;54.678;9.110;2022-10-16T07:14:17;14.48;;;2.72;;
28822;SDS011;15961;54.678;9.110;2022-10-16T07:16:44;17.35;;;3.00;;
28822;SDS011;15961;54.678;9.110;2022-10-16T07:19:09;14.45;;;3.38;;
28822;SDS011;15961;54.678;9.110;2022-10-16T07:21:37;23.80;;;3.50;;
28822;SDS011;15961;54.678;9.110;2022-10-16T07:24:03;17.92;;;2.45;;
28822;SDS011;15961;54.678;9.110;2022-10-16T07:26:32;18.70;;;3.47;;
28822;SDS011;15961;54.678;9.110;2022-10-16T07:29:00;15.05;;;3.50;;
28822;SDS011;15961;54.678;9.110;2022-10-16T07:31:26;16.35;;;3.75;;
28822;SDS011;15961;54.678;9.110;2022-10-16T07:33:52;19.80;;;2.63;;
28822;SDS011;15961;54.678;9.110;2022-10-16T07:36:19;15.43;;;2.72;;
28822;SDS011;15961;54.678;9.110;2022-10-16T07:38:45;17.17;;;3.58;;
28822;SDS011;15961;54.678;9.110;2022-10-16T07:41:12;23.60;;;3.45;;
28822;SDS011;15961;54.678;9.110;2022-10-16T07:43:39;13.52;;;2.58;;
28822;SDS011;15961;54.678;9.110;2022-10-16T07:46:05;16.02;;;3.33;;
28822;SDS011;15961;54.678;9.110;2022-10-16T07:48:31;14.35;;;3.30;;
28822;SDS011;15961;54.678;9.110;2022-10-16T07:51:03;20.13;;;3.35;;
28822;SDS011;15961;54.678;9.110;2022-10-16T07:53:30;17.65;;;2.90;;
28822;SDS011;15961;54.678;9.110;2022-10-16T07:55:59;17.05;;;3.63;;
28822;SDS011;15961;54.678;9.110;2022-10-16T07:58:26;13.07;;;3.83;;
28822;SDS011;15961;54.678;9.110;2022-10-16T08:00:52;12.45;;;2.88;;
28822;SDS011;15961;54.678;9.110;2022-10-16T08:03:18;16.27;;;3.85;;
28822;SDS011;15961;54.678;9.110;2022-10-16T08:05:43;13.65;;;3.15;;
28822;SDS011;15961;54.678;9.110;2022-10-16T08:08:12;12.63;;;2.28;;
28822;SDS011;15961;54.678;9.110;2022-10-16T08:10:39;16.10;;;2.95;;
28822;SDS011;15961;54.678;9.110;2022-10-16T08:13:05;15.90;;;2.83;;
28822;SDS011;15961;54.678;9.110;2022-10-16T08:15:30;13.35;;;3.55;;
28822;SDS011;15961;54.678;9.110;2022-10-16T08:18:00;14.25;;;2.70;;
28822;SDS011;15961;54.678;9.110;2022-10-16T08:20:27;17.15;;;2.65;;
28822;SDS011;15961;54.678;9.110;2022-10-16T08:22:54;12.52;;;2.22;;
28822;SDS011;15961;54.678;9.110;2022-10-16T08:25:21;21.70;;;3.22;;
28822;SDS011;15961;54.678;9.110;2022-10-16T08:27:47;9.25;;;2.15;;
28822;SDS011;15961;54.678;9.110;2022-10-16T08:30:13;10.65;;;2.65;;
28822;SDS011;15961;54.678;9.110;2022-10-16T08:32:40;12.90;;;2.60;;
28822;SDS011;15961;54.678;9.110;2022-10-16T08:35:09;24.00;;;3.50;;
28822;SDS011;15961;54.678;9.110;2022-10-16T08:37:36;13.20;;;2.10;;
28822;SDS011;15961;54.678;9.110;2022-10-16T08:40:02;10.52;;;3.42;;
28822;SDS011;15961;54.678;9.110;2022-10-16T08:47:33;9.75;;;2.50;;
28822;SDS011;15961;54.678;9.110;2022-10-16T08:50:09;7.80;;;2.33;;
28822;SDS011;15961;54.678;9.110;2022-10-16T08:52:39;9.75;;;2.13;;
28822;SDS011;15961;54.678;9.110;2022-10-16T08:55:22;14.23;;;3.20;;
28822;SDS011;15961;54.678;9.110;2022-10-16T08:57:55;8.48;;;2.63;;
28822;SDS011;15961;54.678;9.110;2022-10-16T09:00:21;15.43;;;3.47;;
28822;SDS011;15961;54.678;9.110;2022-10-16T09:02:59;11.48;;;2.08;;
28822;SDS011;15961;54.678;9.110;2022-10-16T09:08:29;20.80;;;2.97;;
28822;SDS011;15961;54.678;9.110;2022-10-16T09:11:30;17.48;;;3.83;;
28822;SDS011;15961;54.678;9.110;2022-10-16T09:17:11;16.48;;;2.50;;
28822;SDS011;15961;54.678;9.110;2022-10-16T09:20:03;19.15;;;3.00;;
28822;SDS011;15961;54.678;9.110;2022-10-16T09:22:30;17.95;;;2.53;;
28822;SDS011;15961;54.678;9.110;2022-10-16T09:24:59;30.23;;;4.03;;
28822;SDS011;15961;54.678;9.110;2022-10-16T09:27:26;16.60;;;3.00;;
28822;SDS011;15961;54.678;9.110;2022-10-16T09:29:51;14.15;;;2.75;;
28822;SDS011;15961;54.678;9.110;2022-10-16T09:32:18;22.38;;;4.53;;
28822;SDS011;15961;54.678;9.110;2022-10-16T09:34:47;34.22;;;4.32;;
28822;SDS011;15961;54.678;9.110;2022-10-16T09:37:17;14.48;;;3.22;;
28822;SDS011;15961;54.678;9.110;2022-10-16T09:39:48;16.73;;;3.92;;
28822;SDS011;15961;54.678;9.110;2022-10-16T09:42:27;15.45;;;3.30;;
28822;SDS011;15961;54.678;9.110;2022-10-16T09:44:57;15.98;;;3.03;;
28822;SDS011;15961;54.678;9.110;2022-10-16T09:47:23;16.48;;;3.85;;
28822;SDS011;15961;54.678;9.110;2022-10-16T09:49:55;25.13;;;4.50;;
28822;SDS011;15961;54.678;9.110;2022-10-16T09:52:24;15.57;;;2.92;;
28822;SDS011;15961;54.678;9.110;2022-10-16T09:54:50;20.35;;;4.07;;
28822;SDS011;15961;54.678;9.110;2022-10-16T09:57:17;13.95;;;3.13;;
28822;SDS011;15961;54.678;9.110;2022-10-16T09:59:47;25.83;;;3.80;;
28822;SDS011;15961;54.678;9.110;2022-10-16T10:02:15;12.90;;;3.13;;
28822;SDS011;15961;54.678;9.110;2022-10-16T10:04:45;21.75;;;3.83;;
28822;SDS011;15961;54.678;9.110;2022-10-16T10:07:20;10.77;;;3.28;;
28822;SDS011;15961;54.678;9.110;2022-10-16T10:09:50;16.95;;;3.70;;
28822;SDS011;15961;54.678;9.110;2022-10-16T10:12:20;21.38;;;3.47;;
28822;SDS011;15961;54.678;9.110;2022-10-16T10:17:20;17.45;;;4.43;;
28822;SDS011;15961;54.678;9.110;2022-10-16T10:19:49;17.65;;;3.80;;
28822;SDS011;15961;54.678;9.110;2022-10-16T10:24:59;21.63;;;3.58;;
28822;SDS011;15961;54.678;9.110;2022-10-16T10:30:29;21.65;;;2.90;;
28822;SDS011;15961;54.678;9.110;2022-10-16T10:35:56;22.70;;;4.03;;
28822;SDS011;15961;54.678;9.110;2022-10-16T10:38:33;19.15;;;3.40;;
28822;SDS011;15961;54.678;9.110;2022-10-16T10:47:18;21.35;;;3.45;;
28822;SDS011;15961;54.678;9.110;2022-10-16T11:01:23;20.63;;;3.88;;
28822;SDS011;15961;54.678;9.110;2022-10-16T11:07:04;26.10;;;3.63;;
28822;SDS011;15961;54.678;9.110;2022-10-16T11:09:38;27.05;;;5.57;;
28822;SDS011;15961;54.678;9.110;2022-10-16T11:12:12;19.60;;;3.83;;
28822;SDS011;15961;54.678;9.110;2022-10-16T11:14:49;32.22;;;5.20;;
28822;SDS011;15961;54.678;9.110;2022-10-16T11:20:51;34.90;;;5.13;;
28822;SDS011;15961;54.678;9.110;2022-10-16T11:23:28;25.17;;;4.40;;
28822;SDS011;15961;54.678;9.110;2022-10-16T11:26:02;20.10;;;3.92;;
28822;SDS011;15961;54.678;9.110;2022-10-16T11:28:45;28.95;;;5.18;;
28822;SDS011;15961;54.678;9.110;2022-10-16T11:31:19;29.77;;;4.60;;
28822;SDS011;15961;54.678;9.110;2022-10-16T11:33:59;33.30;;;4.25;;
28822;SDS011;15961;54.678;9.110;2022-10-16T11:36:38;37.08;;;5.10;;
28822;SDS011;15961;54.678;9.110;2022-10-16T11:39:10;25.83;;;4.93;;
28822;SDS011;15961;54.678;9.110;2022-10-16T11:41:47;31.58;;;5.25;;
28822;SDS011;15961;54.678;9.110;2022-10-16T11:49:57;27.60;;;3.53;;
28822;SDS011;15961;54.678;9.110;2022-10-16T11:52:36;31.55;;;4.57;;
28822;SDS011;15961;54.678;9.110;2022-10-16T11:55:14;42.17;;;6.68;;
28822;SDS011;15961;54.678;9.110;2022-10-16T11:57:52;33.42;;;4.90;;
28822;SDS011;15961;54.678;9.110;2022-10-16T12:00:40;33.22;;;6.18;;
28822;SDS011;15961;54.678;9.110;2022-10-16T12:03:16;28.15;;;4.75;;
28822;SDS011;15961;54.678;9.110;2022-10-16T12:06:27;21.55;;;4.43;;
28822;SDS011;15961;54.678;9.110;2022-10-16T12:09:27;34.47;;;5.25;;
28822;SDS011;15961;54.678;9.110;2022-10-16T12:11:55;29.40;;;5.35;;
28822;SDS011;15961;54.678;9.110;2022-10-16T12:17:23;46.90;;;6.28;;
28822;SDS011;15961;54.678;9.110;2022-10-16T12:20:12;43.08;;;6.47;;
28822;SDS011;15961;54.678;9.110;2022-10-16T12:22:52;24.52;;;4.15;;
28822;SDS011;15961;54.678;9.110;2022-10-16T12:28:15;37.35;;;4.88;;
28822;SDS011;15961;54.678;9.110;2022-10-16T12:30:54;39.03;;;6.90;;
28822;SDS011;15961;54.678;9.110;2022-10-16T12:33:27;38.97;;;6.10;;
28822;SDS011;15961;54.678;9.110;2022-10-16T12:35:54;44.95;;;6.82;;
28822;SDS011;15961;54.678;9.110;2022-10-16T12:38:25;44.85;;;6.53;;
28822;SDS011;15961;54.678;9.110;2022-10-16T12:40:59;36.92;;;5.25;;
28822;SDS011;15961;54.678;9.110;2022-10-16T12:43:35;22.75;;;4.63;;
28822;SDS011;15961;54.678;9.110;2022-10-16T12:46:04;49.08;;;7.05;;
28822;SDS011;15961;54.678;9.110;2022-10-16T12:48:33;36.20;;;5.05;;
28822;SDS011;15961;54.678;9.110;2022-10-16T12:51:09;36.20;;;5.72;;
28822;SDS011;15961;54.678;9.110;2022-10-16T12:53:36;38.90;;;5.88;;
28822;SDS011;15961;54.678;9.110;2022-10-16T12:56:16;42.45;;;6.25;;
28822;SDS011;15961;54.678;9.110;2022-10-16T13:06:55;46.60;;;7.05;;
28822;SDS011;15961;54.678;9.110;2022-10-16T13:15:25;45.08;;;7.13;;
28822;SDS011;15961;54.678;9.110;2022-10-16T13:18:36;51.70;;;8.43;;
28822;SDS011;15961;54.678;9.110;2022-10-16T13:23:27;39.72;;;6.20;;
28822;SDS011;15961;54.678;9.110;2022-10-16T13:28:29;46.33;;;7.97;;
28822;SDS011;15961;54.678;9.110;2022-10-16T13:30:57;52.10;;;6.97;;
28822;SDS011;15961;54.678;9.110;2022-10-16T13:33:27;41.97;;;5.20;;
28822;SDS011;15961;54.678;9.110;2022-10-16T13:36:01;31.90;;;4.28;;
28822;SDS011;15961;54.678;9.110;2022-10-16T13:38:28;34.15;;;5.50;;
28822;SDS011;15961;54.678;9.110;2022-10-16T13:41:01;38.90;;;6.43;;
28822;SDS011;15961;54.678;9.110;2022-10-16T13:43:32;35.88;;;5.53;;
28822;SDS011;15961;54.678;9.110;2022-10-16T13:46:02;39.97;;;6.95;;
28822;SDS011;15961;54.678;9.110;2022-10-16T13:48:34;39.97;;;7.65;;
28822;SDS011;15961;54.678;9.110;2022-10-16T13:53:25;45.17;;;7.10;;
28822;SDS011;15961;54.678;9.110;2022-10-16T13:55:50;33.60;;;5.55;;
28822;SDS011;15961;54.678;9.110;2022-10-16T13:58:16;40.65;;;6.20;;
28822;SDS011;15961;54.678;9.110;2022-10-16T14:01:03;58.33;;;6.85;;
28822;SDS011;15961;54.678;9.110;2022-10-16T14:03:44;36.75;;;5.88;;
28822;SDS011;15961;54.678;9.110;2022-10-16T14:06:12;31.45;;;5.28;;
28822;SDS011;15961;54.678;9.110;2022-10-16T14:08:44;31.60;;;4.70;;
28822;SDS011;15961;54.678;9.110;2022-10-16T14:11:19;35.63;;;5.55;;
28822;SDS011;15961;54.678;9.110;2022-10-16T14:13:48;34.35;;;4.47;;
28822;SDS011;15961;54.678;9.110;2022-10-16T14:16:49;29.80;;;4.97;;
28822;SDS011;15961;54.678;9.110;2022-10-16T14:19:26;38.38;;;5.63;;
28822;SDS011;15961;54.678;9.110;2022-10-16T14:21:53;41.13;;;6.65;;
28822;SDS011;15961;54.678;9.110;2022-10-16T14:24:25;17.83;;;4.07;;
28822;SDS011;15961;54.678;9.110;2022-10-16T14:26:56;17.27;;;3.97;;
28822;SDS011;15961;54.678;9.110;2022-10-16T14:29:22;40.55;;;5.00;;
28822;SDS011;15961;54.678;9.110;2022-10-16T14:32:05;36.72;;;4.78;;
28822;SDS011;15961;54.678;9.110;2022-10-16T14:34:35;26.30;;;4.68;;
28822;SDS011;15961;54.678;9.110;2022-10-16T14:37:16;29.25;;;4.97;;
28822;SDS011;15961;54.678;9.110;2022-10-16T14:39:52;34.55;;;5.20;;
28822;SDS011;15961;54.678;9.110;2022-10-16T14:42:19;30.33;;;4.30;;
28822;SDS011;15961;54.678;9.110;2022-10-16T14:44:48;20.70;;;4.68;;
28822;SDS011;15961;54.678;9.110;2022-10-16T14:47:18;19.98;;;3.72;;
28822;SDS011;15961;54.678;9.110;2022-10-16T14:49:49;31.75;;;4.57;;
28822;SDS011;15961;54.678;9.110;2022-10-16T14:52:14;25.42;;;4.13;;
28822;SDS011;15961;54.678;9.110;2022-10-16T14:54:40;23.38;;;4.03;;
28822;SDS011;15961;54.678;9.110;2022-10-16T14:57:13;27.73;;;4.05;;
28822;SDS011;15961;54.678;9.110;2022-10-16T14:59:42;27.73;;;4.38;;
28822;SDS011;15961;54.678;9.110;2022-10-16T15:04:49;25.75;;;4.78;;
28822;SDS011;15961;54.678;9.110;2022-10-16T15:07:15;30.80;;;5.38;;
28822;SDS011;15961;54.678;9.110;2022-10-16T15:09:40;31.88;;;4.57;;
28822;SDS011;15961;54.678;9.110;2022-10-16T15:12:06;39.35;;;5.95;;
28822;SDS011;15961;54.678;9.110;2022-10-16T15:14:31;27.45;;;5.40;;
28822;SDS011;15961;54.678;9.110;2022-10-16T15:16:57;42.67;;;6.05;;
28822;SDS011;15961;54.678;9.110;2022-10-16T15:19:23;39.67;;;5.10;;
28822;SDS011;15961;54.678;9.110;2022-10-16T15:21:48;30.15;;;4.82;;
28822;SDS011;15961;54.678;9.110;2022-10-16T15:24:14;42.35;;;8.75;;
28822;SDS011;15961;54.678;9.110;2022-10-16T15:26:40;26.10;;;4.90;;
28822;SDS011;15961;54.678;9.110;2022-10-16T15:29:05;26.98;;;3.67;;
28822;SDS011;15961;54.678;9.110;2022-10-16T15:31:32;27.58;;;4.97;;
28822;SDS011;15961;54.678;9.110;2022-10-16T15:33:58;43.08;;;5.28;;
28822;SDS011;15961;54.678;9.110;2022-10-16T15:36:29;30.00;;;5.45;;
28822;SDS011;15961;54.678;9.110;2022-10-16T15:39:01;35.58;;;5.43;;
28822;SDS011;15961;54.678;9.110;2022-10-16T15:41:40;33.67;;;5.63;;
28822;SDS011;15961;54.678;9.110;2022-10-16T15:44:06;43.47;;;6.68;;
28822;SDS011;15961;54.678;9.110;2022-10-16T15:46:32;39.97;;;6.45;;
28822;SDS011;15961;54.678;9.110;2022-10-16T15:48:59;40.28;;;6.53;;
28822;SDS011;15961;54.678;9.110;2022-10-16T15:51:25;29.05;;;6.45;;
28822;SDS011;15961;54.678;9.110;2022-10-16T15:53:54;39.25;;;7.05;;
28822;SDS011;15961;54.678;9.110;2022-10-16T15:56:21;39.75;;;7.05;;
28822;SDS011;15961;54.678;9.110;2022-10-16T15:58:48;35.63;;;5.93;;
28822;SDS011;15961;54.678;9.110;2022-10-16T16:01:13;44.65;;;7.68;;
28822;SDS011;15961;54.678;9.110;2022-10-16T16:03:39;53.70;;;8.68;;
28822;SDS011;15961;54.678;9.110;2022-10-16T16:06:06;38.63;;;5.53;;
28822;SDS011;15961;54.678;9.110;2022-10-16T16:08:34;34.70;;;8.52;;
28822;SDS011;15961;54.678;9.110;2022-10-16T16:11:07;36.17;;;6.25;;
28822;SDS011;15961;54.678;9.110;2022-10-16T16:13:35;32.20;;;5.78;;
28822;SDS011;15961;54.678;9.110;2022-10-16T16:16:04;33.60;;;5.30;;
28822;SDS011;15961;54.678;9.110;2022-10-16T16:18:31;30.25;;;5.30;;
28822;SDS011;15961;54.678;9.110;2022-10-16T16:20:57;38.80;;;5.50;;
28822;SDS011;15961;54.678;9.110;2022-10-16T16:23:22;61.28;;;12.90;;